Terminal Aerodrome Forecast
Issued by NWS

Home | Current Version | Previous Version | Graphics & Text | Print | Product List | Glossary On
Versions: 1 2 3 4 5 6 7 8 9 10 11 12 13 14 15 16 17 18 19 20
000
FTUS43 KICT 242320
TAFSLN
TAF
KSLN 242320Z 2500/2524 16008KT P6SM OVC040
     FM250500 15008KT P6SM OVC020
     FM250900 15008KT 3SM BR OVC006
     FM251600 19010KT P6SM SCT025
     FM252100 18013G20KT P6SM SCT040=

USA.gov is the U.S. government's official web portal to all federal, state and local government web resources and services.